sensor_id;sensor_type;location;lat;lon;timestamp;P1;durP1;ratioP1;P2;durP2;ratioP2
25913;SDS011;13718;50.922;5.346;2023-04-25T00:01:32;18.40;;;4.80;;
25913;SDS011;13718;50.922;5.346;2023-04-25T00:04:02;25.17;;;4.68;;
25913;SDS011;13718;50.922;5.346;2023-04-25T00:06:32;20.42;;;4.20;;
25913;SDS011;13718;50.922;5.346;2023-04-25T00:09:01;19.17;;;4.68;;
25913;SDS011;13718;50.922;5.346;2023-04-25T00:11:28;15.93;;;4.47;;
25913;SDS011;13718;50.922;5.346;2023-04-25T00:13:55;26.92;;;4.60;;
25913;SDS011;13718;50.922;5.346;2023-04-25T00:16:22;24.75;;;4.75;;
25913;SDS011;13718;50.922;5.346;2023-04-25T00:18:48;21.88;;;5.13;;
25913;SDS011;13718;50.922;5.346;2023-04-25T00:21:17;31.23;;;5.05;;
25913;SDS011;13718;50.922;5.346;2023-04-25T00:23:44;19.48;;;4.88;;
25913;SDS011;13718;50.922;5.346;2023-04-25T00:26:10;20.05;;;4.80;;
25913;SDS011;13718;50.922;5.346;2023-04-25T00:28:36;20.40;;;4.72;;
25913;SDS011;13718;50.922;5.346;2023-04-25T00:31:02;23.77;;;4.93;;
25913;SDS011;13718;50.922;5.346;2023-04-25T00:33:28;21.20;;;5.18;;
25913;SDS011;13718;50.922;5.346;2023-04-25T00:35:55;27.38;;;5.15;;
25913;SDS011;13718;50.922;5.346;2023-04-25T00:38:21;26.48;;;5.18;;
25913;SDS011;13718;50.922;5.346;2023-04-25T00:40:46;21.35;;;4.68;;
25913;SDS011;13718;50.922;5.346;2023-04-25T00:43:12;22.30;;;5.55;;
25913;SDS011;13718;50.922;5.346;2023-04-25T00:45:38;17.95;;;4.90;;
25913;SDS011;13718;50.922;5.346;2023-04-25T00:48:05;24.40;;;4.97;;
25913;SDS011;13718;50.922;5.346;2023-04-25T00:50:33;17.58;;;5.10;;
25913;SDS011;13718;50.922;5.346;2023-04-25T00:52:59;23.35;;;5.75;;
25913;SDS011;13718;50.922;5.346;2023-04-25T00:55:26;20.48;;;4.88;;
25913;SDS011;13718;50.922;5.346;2023-04-25T00:57:51;25.58;;;4.80;;
25913;SDS011;13718;50.922;5.346;2023-04-25T01:00:17;21.00;;;5.57;;
25913;SDS011;13718;50.922;5.346;2023-04-25T01:02:44;29.95;;;5.45;;
25913;SDS011;13718;50.922;5.346;2023-04-25T01:05:10;24.67;;;5.18;;
25913;SDS011;13718;50.922;5.346;2023-04-25T01:07:36;23.75;;;5.40;;
25913;SDS011;13718;50.922;5.346;2023-04-25T01:10:03;19.98;;;5.57;;
25913;SDS011;13718;50.922;5.346;2023-04-25T01:12:29;20.98;;;5.10;;
25913;SDS011;13718;50.922;5.346;2023-04-25T01:14:55;20.13;;;5.65;;
25913;SDS011;13718;50.922;5.346;2023-04-25T01:17:21;18.15;;;5.50;;
25913;SDS011;13718;50.922;5.346;2023-04-25T01:19:47;23.50;;;5.32;;
25913;SDS011;13718;50.922;5.346;2023-04-25T01:22:14;22.23;;;4.97;;
25913;SDS011;13718;50.922;5.346;2023-04-25T01:24:40;21.63;;;5.45;;
25913;SDS011;13718;50.922;5.346;2023-04-25T01:27:06;23.25;;;5.05;;
25913;SDS011;13718;50.922;5.346;2023-04-25T01:29:32;22.20;;;5.45;;
25913;SDS011;13718;50.922;5.346;2023-04-25T01:31:59;17.85;;;5.05;;
25913;SDS011;13718;50.922;5.346;2023-04-25T01:34:26;23.10;;;5.30;;
25913;SDS011;13718;50.922;5.346;2023-04-25T01:36:51;24.80;;;5.15;;
25913;SDS011;13718;50.922;5.346;2023-04-25T01:39:18;17.42;;;5.22;;
25913;SDS011;13718;50.922;5.346;2023-04-25T01:41:47;23.63;;;5.07;;
25913;SDS011;13718;50.922;5.346;2023-04-25T01:44:14;25.63;;;5.32;;
25913;SDS011;13718;50.922;5.346;2023-04-25T01:46:40;21.00;;;5.00;;
25913;SDS011;13718;50.922;5.346;2023-04-25T01:49:06;29.02;;;6.10;;
25913;SDS011;13718;50.922;5.346;2023-04-25T01:51:32;20.23;;;5.10;;
25913;SDS011;13718;50.922;5.346;2023-04-25T01:53:58;24.27;;;5.40;;
25913;SDS011;13718;50.922;5.346;2023-04-25T01:56:24;20.77;;;5.65;;
25913;SDS011;13718;50.922;5.346;2023-04-25T01:58:50;20.15;;;5.65;;
25913;SDS011;13718;50.922;5.346;2023-04-25T02:01:16;23.08;;;5.68;;
25913;SDS011;13718;50.922;5.346;2023-04-25T02:03:42;18.98;;;4.88;;
25913;SDS011;13718;50.922;5.346;2023-04-25T02:06:08;30.08;;;5.70;;
25913;SDS011;13718;50.922;5.346;2023-04-25T02:08:34;27.63;;;5.40;;
25913;SDS011;13718;50.922;5.346;2023-04-25T02:10:59;28.85;;;5.45;;
25913;SDS011;13718;50.922;5.346;2023-04-25T02:13:25;28.98;;;5.93;;
25913;SDS011;13718;50.922;5.346;2023-04-25T02:15:50;26.35;;;5.82;;
25913;SDS011;13718;50.922;5.346;2023-04-25T02:18:16;22.70;;;5.45;;
25913;SDS011;13718;50.922;5.346;2023-04-25T02:20:42;28.58;;;5.38;;
25913;SDS011;13718;50.922;5.346;2023-04-25T02:23:09;21.25;;;5.60;;
25913;SDS011;13718;50.922;5.346;2023-04-25T02:25:34;24.45;;;5.55;;
25913;SDS011;13718;50.922;5.346;2023-04-25T02:28:00;28.05;;;5.43;;
25913;SDS011;13718;50.922;5.346;2023-04-25T02:30:26;21.90;;;5.65;;
25913;SDS011;13718;50.922;5.346;2023-04-25T02:32:51;21.08;;;5.03;;
25913;SDS011;13718;50.922;5.346;2023-04-25T02:35:17;20.05;;;5.75;;
25913;SDS011;13718;50.922;5.346;2023-04-25T02:37:43;27.30;;;5.80;;
25913;SDS011;13718;50.922;5.346;2023-04-25T02:40:09;25.08;;;5.97;;
25913;SDS011;13718;50.922;5.346;2023-04-25T02:42:35;24.70;;;5.72;;
25913;SDS011;13718;50.922;5.346;2023-04-25T02:45:01;18.58;;;5.50;;
25913;SDS011;13718;50.922;5.346;2023-04-25T02:47:27;22.02;;;5.90;;
25913;SDS011;13718;50.922;5.346;2023-04-25T02:49:53;17.58;;;5.43;;
25913;SDS011;13718;50.922;5.346;2023-04-25T02:52:18;26.88;;;6.43;;
25913;SDS011;13718;50.922;5.346;2023-04-25T02:54:44;22.67;;;5.90;;
25913;SDS011;13718;50.922;5.346;2023-04-25T02:57:09;31.23;;;6.38;;
25913;SDS011;13718;50.922;5.346;2023-04-25T02:59:35;26.33;;;5.80;;
25913;SDS011;13718;50.922;5.346;2023-04-25T03:02:01;23.83;;;5.97;;
25913;SDS011;13718;50.922;5.346;2023-04-25T03:04:27;27.20;;;7.03;;
25913;SDS011;13718;50.922;5.346;2023-04-25T03:06:52;29.63;;;6.65;;
25913;SDS011;13718;50.922;5.346;2023-04-25T03:09:18;31.13;;;6.20;;
25913;SDS011;13718;50.922;5.346;2023-04-25T03:11:44;27.88;;;6.70;;
25913;SDS011;13718;50.922;5.346;2023-04-25T03:14:10;27.08;;;6.20;;
25913;SDS011;13718;50.922;5.346;2023-04-25T03:16:36;28.88;;;6.18;;
25913;SDS011;13718;50.922;5.346;2023-04-25T03:19:02;20.63;;;5.25;;
25913;SDS011;13718;50.922;5.346;2023-04-25T03:21:28;24.25;;;5.80;;
25913;SDS011;13718;50.922;5.346;2023-04-25T03:23:56;22.85;;;6.13;;
25913;SDS011;13718;50.922;5.346;2023-04-25T03:26:22;30.33;;;6.43;;
25913;SDS011;13718;50.922;5.346;2023-04-25T03:28:48;28.02;;;6.18;;
25913;SDS011;13718;50.922;5.346;2023-04-25T03:31:13;21.27;;;5.93;;
25913;SDS011;13718;50.922;5.346;2023-04-25T03:33:39;29.85;;;6.50;;
25913;SDS011;13718;50.922;5.346;2023-04-25T03:36:05;22.50;;;5.57;;
25913;SDS011;13718;50.922;5.346;2023-04-25T03:38:31;24.48;;;5.65;;
25913;SDS011;13718;50.922;5.346;2023-04-25T03:40:57;31.52;;;6.40;;
25913;SDS011;13718;50.922;5.346;2023-04-25T03:43:22;22.55;;;6.03;;
25913;SDS011;13718;50.922;5.346;2023-04-25T03:45:48;28.60;;;5.25;;
25913;SDS011;13718;50.922;5.346;2023-04-25T03:48:13;26.50;;;5.85;;
25913;SDS011;13718;50.922;5.346;2023-04-25T03:50:39;23.75;;;6.13;;
25913;SDS011;13718;50.922;5.346;2023-04-25T03:53:05;26.15;;;6.63;;
25913;SDS011;13718;50.922;5.346;2023-04-25T03:55:30;28.33;;;6.00;;
25913;SDS011;13718;50.922;5.346;2023-04-25T03:57:57;20.83;;;5.47;;
25913;SDS011;13718;50.922;5.346;2023-04-25T04:00:23;33.95;;;6.93;;
25913;SDS011;13718;50.922;5.346;2023-04-25T04:02:50;27.30;;;5.68;;
25913;SDS011;13718;50.922;5.346;2023-04-25T04:05:15;26.00;;;6.22;;
25913;SDS011;13718;50.922;5.346;2023-04-25T04:07:41;30.80;;;6.05;;
25913;SDS011;13718;50.922;5.346;2023-04-25T04:10:08;27.10;;;6.93;;
25913;SDS011;13718;50.922;5.346;2023-04-25T04:12:34;27.42;;;7.45;;
25913;SDS011;13718;50.922;5.346;2023-04-25T04:15:01;20.42;;;6.28;;
25913;SDS011;13718;50.922;5.346;2023-04-25T04:17:28;25.23;;;6.75;;
25913;SDS011;13718;50.922;5.346;2023-04-25T04:19:54;28.02;;;6.20;;
25913;SDS011;13718;50.922;5.346;2023-04-25T04:22:20;35.28;;;7.22;;
25913;SDS011;13718;50.922;5.346;2023-04-25T04:24:45;27.52;;;6.05;;
25913;SDS011;13718;50.922;5.346;2023-04-25T04:27:11;24.67;;;5.10;;
25913;SDS011;13718;50.922;5.346;2023-04-25T04:29:37;22.70;;;5.45;;
25913;SDS011;13718;50.922;5.346;2023-04-25T04:32:03;23.08;;;4.45;;
25913;SDS011;13718;50.922;5.346;2023-04-25T04:34:29;21.50;;;5.25;;
25913;SDS011;13718;50.922;5.346;2023-04-25T04:36:56;23.75;;;5.05;;
25913;SDS011;13718;50.922;5.346;2023-04-25T04:39:21;21.75;;;4.80;;
25913;SDS011;13718;50.922;5.346;2023-04-25T04:41:47;22.00;;;4.53;;
25913;SDS011;13718;50.922;5.346;2023-04-25T04:44:13;19.45;;;4.05;;
25913;SDS011;13718;50.922;5.346;2023-04-25T04:46:39;19.25;;;4.53;;
25913;SDS011;13718;50.922;5.346;2023-04-25T04:49:08;24.85;;;4.20;;
25913;SDS011;13718;50.922;5.346;2023-04-25T04:51:34;13.88;;;3.50;;
25913;SDS011;13718;50.922;5.346;2023-04-25T04:53:59;21.88;;;4.07;;
25913;SDS011;13718;50.922;5.346;2023-04-25T04:56:27;18.65;;;3.97;;
25913;SDS011;13718;50.922;5.346;2023-04-25T04:58:54;18.77;;;4.57;;
25913;SDS011;13718;50.922;5.346;2023-04-25T05:01:20;13.70;;;3.30;;
25913;SDS011;13718;50.922;5.346;2023-04-25T05:03:45;10.98;;;3.50;;
25913;SDS011;13718;50.922;5.346;2023-04-25T05:06:11;13.43;;;3.92;;
25913;SDS011;13718;50.922;5.346;2023-04-25T05:08:36;17.80;;;4.13;;
25913;SDS011;13718;50.922;5.346;2023-04-25T05:11:02;18.52;;;3.97;;
25913;SDS011;13718;50.922;5.346;2023-04-25T05:13:28;17.35;;;4.25;;
25913;SDS011;13718;50.922;5.346;2023-04-25T05:15:53;20.27;;;3.92;;
25913;SDS011;13718;50.922;5.346;2023-04-25T05:18:19;23.83;;;4.20;;
25913;SDS011;13718;50.922;5.346;2023-04-25T05:20:45;13.52;;;3.80;;
25913;SDS011;13718;50.922;5.346;2023-04-25T05:23:10;19.95;;;3.33;;
25913;SDS011;13718;50.922;5.346;2023-04-25T05:25:36;14.80;;;3.42;;
25913;SDS011;13718;50.922;5.346;2023-04-25T05:28:02;11.05;;;2.92;;
25913;SDS011;13718;50.922;5.346;2023-04-25T05:30:27;15.25;;;3.33;;
25913;SDS011;13718;50.922;5.346;2023-04-25T05:32:53;16.23;;;3.72;;
25913;SDS011;13718;50.922;5.346;2023-04-25T05:35:18;14.00;;;3.35;;
25913;SDS011;13718;50.922;5.346;2023-04-25T05:37:44;13.80;;;4.03;;
25913;SDS011;13718;50.922;5.346;2023-04-25T05:40:10;18.08;;;4.03;;
25913;SDS011;13718;50.922;5.346;2023-04-25T05:42:36;18.98;;;4.05;;
25913;SDS011;13718;50.922;5.346;2023-04-25T05:45:01;17.52;;;4.40;;
25913;SDS011;13718;50.922;5.346;2023-04-25T05:47:27;19.70;;;4.32;;
25913;SDS011;13718;50.922;5.346;2023-04-25T05:49:53;17.02;;;3.97;;
25913;SDS011;13718;50.922;5.346;2023-04-25T05:52:18;20.73;;;4.35;;
25913;SDS011;13718;50.922;5.346;2023-04-25T05:54:44;19.92;;;3.67;;
25913;SDS011;13718;50.922;5.346;2023-04-25T05:57:19;19.73;;;3.85;;
25913;SDS011;13718;50.922;5.346;2023-04-25T05:59:46;13.73;;;3.42;;
25913;SDS011;13718;50.922;5.346;2023-04-25T06:02:11;14.45;;;3.95;;
25913;SDS011;13718;50.922;5.346;2023-04-25T06:04:37;23.67;;;3.95;;
25913;SDS011;13718;50.922;5.346;2023-04-25T06:07:02;25.00;;;5.15;;
25913;SDS011;13718;50.922;5.346;2023-04-25T06:09:28;20.85;;;3.65;;
25913;SDS011;13718;50.922;5.346;2023-04-25T06:11:53;20.42;;;4.05;;
25913;SDS011;13718;50.922;5.346;2023-04-25T06:14:19;23.65;;;4.68;;
25913;SDS011;13718;50.922;5.346;2023-04-25T06:16:45;20.05;;;4.53;;
25913;SDS011;13718;50.922;5.346;2023-04-25T06:19:10;18.35;;;4.85;;
25913;SDS011;13718;50.922;5.346;2023-04-25T06:21:36;30.65;;;5.85;;
25913;SDS011;13718;50.922;5.346;2023-04-25T06:24:01;28.30;;;4.90;;
25913;SDS011;13718;50.922;5.346;2023-04-25T06:26:27;16.08;;;4.20;;
25913;SDS011;13718;50.922;5.346;2023-04-25T06:28:53;25.10;;;4.95;;
25913;SDS011;13718;50.922;5.346;2023-04-25T06:31:18;22.45;;;5.28;;
25913;SDS011;13718;50.922;5.346;2023-04-25T06:33:44;22.20;;;5.07;;
25913;SDS011;13718;50.922;5.346;2023-04-25T06:36:09;20.33;;;4.88;;
25913;SDS011;13718;50.922;5.346;2023-04-25T06:38:35;21.33;;;5.97;;
25913;SDS011;13718;50.922;5.346;2023-04-25T06:41:01;26.35;;;4.93;;
25913;SDS011;13718;50.922;5.346;2023-04-25T06:43:27;19.70;;;5.38;;
25913;SDS011;13718;50.922;5.346;2023-04-25T06:45:53;27.75;;;5.68;;
25913;SDS011;13718;50.922;5.346;2023-04-25T06:48:18;27.50;;;6.28;;
25913;SDS011;13718;50.922;5.346;2023-04-25T06:50:44;27.85;;;5.38;;
25913;SDS011;13718;50.922;5.346;2023-04-25T06:53:09;18.25;;;6.03;;
25913;SDS011;13718;50.922;5.346;2023-04-25T06:55:36;18.98;;;5.45;;
25913;SDS011;13718;50.922;5.346;2023-04-25T06:58:02;23.92;;;6.25;;
25913;SDS011;13718;50.922;5.346;2023-04-25T07:00:28;23.08;;;5.82;;
25913;SDS011;13718;50.922;5.346;2023-04-25T07:02:53;24.52;;;6.07;;
25913;SDS011;13718;50.922;5.346;2023-04-25T07:05:19;21.88;;;6.38;;
25913;SDS011;13718;50.922;5.346;2023-04-25T07:07:45;26.73;;;5.88;;
25913;SDS011;13718;50.922;5.346;2023-04-25T07:10:11;19.20;;;5.38;;
25913;SDS011;13718;50.922;5.346;2023-04-25T07:12:37;21.70;;;5.57;;
25913;SDS011;13718;50.922;5.346;2023-04-25T07:15:02;20.30;;;5.43;;
25913;SDS011;13718;50.922;5.346;2023-04-25T07:17:31;23.75;;;6.45;;
25913;SDS011;13718;50.922;5.346;2023-04-25T07:19:57;20.10;;;5.90;;
25913;SDS011;13718;50.922;5.346;2023-04-25T07:22:23;30.77;;;6.25;;
25913;SDS011;13718;50.922;5.346;2023-04-25T07:24:49;22.50;;;5.57;;
25913;SDS011;13718;50.922;5.346;2023-04-25T07:27:15;22.95;;;6.03;;
25913;SDS011;13718;50.922;5.346;2023-04-25T07:29:40;21.65;;;6.10;;
25913;SDS011;13718;50.922;5.346;2023-04-25T07:32:06;25.38;;;6.57;;
25913;SDS011;13718;50.922;5.346;2023-04-25T07:34:32;21.77;;;5.82;;
25913;SDS011;13718;50.922;5.346;2023-04-25T07:37:02;20.90;;;5.93;;
25913;SDS011;13718;50.922;5.346;2023-04-25T07:39:27;23.05;;;5.45;;
25913;SDS011;13718;50.922;5.346;2023-04-25T07:41:53;19.67;;;4.30;;
25913;SDS011;13718;50.922;5.346;2023-04-25T07:44:18;19.00;;;4.38;;
25913;SDS011;13718;50.922;5.346;2023-04-25T07:46:44;22.55;;;4.10;;
25913;SDS011;13718;50.922;5.346;2023-04-25T07:49:10;14.93;;;4.03;;
25913;SDS011;13718;50.922;5.346;2023-04-25T07:51:36;15.60;;;4.97;;
25913;SDS011;13718;50.922;5.346;2023-04-25T07:54:01;10.60;;;3.28;;
25913;SDS011;13718;50.922;5.346;2023-04-25T07:56:27;12.95;;;3.05;;
25913;SDS011;13718;50.922;5.346;2023-04-25T07:58:53;13.57;;;3.33;;
25913;SDS011;13718;50.922;5.346;2023-04-25T08:01:18;15.88;;;2.80;;
25913;SDS011;13718;50.922;5.346;2023-04-25T08:03:46;11.65;;;2.20;;
25913;SDS011;13718;50.922;5.346;2023-04-25T08:06:12;16.17;;;2.75;;
25913;SDS011;13718;50.922;5.346;2023-04-25T08:08:37;14.43;;;2.35;;
25913;SDS011;13718;50.922;5.346;2023-04-25T08:11:03;12.25;;;2.55;;
25913;SDS011;13718;50.922;5.346;2023-04-25T08:50:31;11.73;;;2.95;;
25913;SDS011;13718;50.922;5.346;2023-04-25T08:52:58;9.38;;;2.50;;
25913;SDS011;13718;50.922;5.346;2023-04-25T08:55:26;13.27;;;2.78;;
25913;SDS011;13718;50.922;5.346;2023-04-25T08:57:53;10.25;;;2.50;;
25913;SDS011;13718;50.922;5.346;2023-04-25T09:00:21;11.82;;;2.67;;
25913;SDS011;13718;50.922;5.346;2023-04-25T09:02:47;11.73;;;2.63;;
25913;SDS011;13718;50.922;5.346;2023-04-25T09:05:13;15.63;;;2.83;;
25913;SDS011;13718;50.922;5.346;2023-04-25T09:07:39;11.73;;;3.03;;
25913;SDS011;13718;50.922;5.346;2023-04-25T09:10:05;14.38;;;3.72;;
25913;SDS011;13718;50.922;5.346;2023-04-25T09:12:31;10.77;;;3.03;;
25913;SDS011;13718;50.922;5.346;2023-04-25T09:15:04;24.17;;;3.90;;
25913;SDS011;13718;50.922;5.346;2023-04-25T09:17:32;15.57;;;4.22;;
25913;SDS011;13718;50.922;5.346;2023-04-25T09:20:07;15.75;;;3.60;;
25913;SDS011;13718;50.922;5.346;2023-04-25T09:22:34;17.75;;;3.70;;
25913;SDS011;13718;50.922;5.346;2023-04-25T09:25:02;12.38;;;3.80;;
25913;SDS011;13718;50.922;5.346;2023-04-25T09:27:29;14.70;;;3.88;;
25913;SDS011;13718;50.922;5.346;2023-04-25T09:29:58;14.05;;;3.92;;
25913;SDS011;13718;50.922;5.346;2023-04-25T09:32:27;14.95;;;4.13;;
25913;SDS011;13718;50.922;5.346;2023-04-25T09:34:54;10.52;;;3.65;;
25913;SDS011;13718;50.922;5.346;2023-04-25T09:37:27;17.33;;;3.38;;
25913;SDS011;13718;50.922;5.346;2023-04-25T09:39:55;17.58;;;3.63;;
25913;SDS011;13718;50.922;5.346;2023-04-25T09:42:22;19.17;;;3.97;;
25913;SDS011;13718;50.922;5.346;2023-04-25T09:44:49;15.77;;;3.40;;
25913;SDS011;13718;50.922;5.346;2023-04-25T09:47:18;13.20;;;2.92;;
25913;SDS011;13718;50.922;5.346;2023-04-25T09:49:46;12.75;;;2.70;;
25913;SDS011;13718;50.922;5.346;2023-04-25T09:52:19;10.23;;;2.72;;
25913;SDS011;13718;50.922;5.346;2023-04-25T09:54:49;11.50;;;2.47;;
25913;SDS011;13718;50.922;5.346;2023-04-25T09:59:49;14.07;;;2.47;;
25913;SDS011;13718;50.922;5.346;2023-04-25T10:02:19;10.07;;;2.47;;
25913;SDS011;13718;50.922;5.346;2023-04-25T10:04:47;11.70;;;2.50;;
25913;SDS011;13718;50.922;5.346;2023-04-25T10:07:15;9.80;;;2.13;;
25913;SDS011;13718;50.922;5.346;2023-04-25T10:09:41;11.52;;;2.13;;
25913;SDS011;13718;50.922;5.346;2023-04-25T10:12:08;8.55;;;2.40;;
25913;SDS011;13718;50.922;5.346;2023-04-25T10:14:34;8.75;;;2.00;;
25913;SDS011;13718;50.922;5.346;2023-04-25T10:17:00;11.43;;;2.25;;
25913;SDS011;13718;50.922;5.346;2023-04-25T10:19:26;12.85;;;2.33;;
25913;SDS011;13718;50.922;5.346;2023-04-25T10:21:55;14.10;;;2.58;;
25913;SDS011;13718;50.922;5.346;2023-04-25T10:24:28;14.38;;;2.25;;
25913;SDS011;13718;50.922;5.346;2023-04-25T10:26:54;12.25;;;2.00;;
25913;SDS011;13718;50.922;5.346;2023-04-25T10:29:25;9.10;;;1.92;;
25913;SDS011;13718;50.922;5.346;2023-04-25T10:31:51;10.73;;;2.30;;
25913;SDS011;13718;50.922;5.346;2023-04-25T10:34:17;10.85;;;1.90;;
25913;SDS011;13718;50.922;5.346;2023-04-25T10:36:49;13.40;;;2.65;;
25913;SDS011;13718;50.922;5.346;2023-04-25T10:39:23;12.07;;;2.00;;
25913;SDS011;13718;50.922;5.346;2023-04-25T10:41:55;9.25;;;2.42;;
25913;SDS011;13718;50.922;5.346;2023-04-25T10:44:22;10.60;;;1.88;;
25913;SDS011;13718;50.922;5.346;2023-04-25T10:46:50;6.80;;;1.73;;
25913;SDS011;13718;50.922;5.346;2023-04-25T10:49:35;11.27;;;1.98;;
25913;SDS011;13718;50.922;5.346;2023-04-25T10:52:16;7.70;;;1.42;;
25913;SDS011;13718;50.922;5.346;2023-04-25T10:54:52;6.65;;;1.15;;
25913;SDS011;13718;50.922;5.346;2023-04-25T11:02:51;11.30;;;1.60;;
25913;SDS011;13718;50.922;5.346;2023-04-25T11:07:58;4.30;;;1.10;;
25913;SDS011;13718;50.922;5.346;2023-04-25T11:10:25;6.60;;;1.10;;
25913;SDS011;13718;50.922;5.346;2023-04-25T11:12:52;3.15;;;0.82;;
25913;SDS011;13718;50.922;5.346;2023-04-25T11:15:17;6.55;;;1.27;;
25913;SDS011;13718;50.922;5.346;2023-04-25T11:17:43;4.15;;;1.02;;
25913;SDS011;13718;50.922;5.346;2023-04-25T11:20:11;3.88;;;0.80;;
25913;SDS011;13718;50.922;5.346;2023-04-25T11:22:39;5.00;;;1.25;;
25913;SDS011;13718;50.922;5.346;2023-04-25T11:25:09;6.97;;;1.13;;
25913;SDS011;13718;50.922;5.346;2023-04-25T11:27:39;4.85;;;1.20;;
25913;SDS011;13718;50.922;5.346;2023-04-25T11:30:17;4.80;;;1.17;;
25913;SDS011;13718;50.922;5.346;2023-04-25T11:32:44;4.22;;;1.05;;
25913;SDS011;13718;50.922;5.346;2023-04-25T11:35:10;5.60;;;1.00;;
25913;SDS011;13718;50.922;5.346;2023-04-25T11:37:36;6.95;;;1.20;;
25913;SDS011;13718;50.922;5.346;2023-04-25T11:40:04;5.13;;;1.00;;
25913;SDS011;13718;50.922;5.346;2023-04-25T11:42:31;5.63;;;1.40;;
25913;SDS011;13718;50.922;5.346;2023-04-25T11:44:58;5.70;;;1.40;;
25913;SDS011;13718;50.922;5.346;2023-04-25T11:47:30;4.45;;;1.10;;
25913;SDS011;13718;50.922;5.346;2023-04-25T11:52:35;6.07;;;1.45;;
25913;SDS011;13718;50.922;5.346;2023-04-25T11:57:42;5.65;;;1.05;;
25913;SDS011;13718;50.922;5.346;2023-04-25T12:00:14;8.48;;;1.40;;
25913;SDS011;13718;50.922;5.346;2023-04-25T12:02:54;10.07;;;1.42;;
25913;SDS011;13718;50.922;5.346;2023-04-25T12:05:27;5.45;;;1.00;;
25913;SDS011;13718;50.922;5.346;2023-04-25T12:07:54;10.65;;;1.23;;
25913;SDS011;13718;50.922;5.346;2023-04-25T12:10:20;5.97;;;1.33;;
25913;SDS011;13718;50.922;5.346;2023-04-25T12:12:46;5.50;;;1.20;;
25913;SDS011;13718;50.922;5.346;2023-04-25T12:15:13;6.13;;;1.20;;
25913;SDS011;13718;50.922;5.346;2023-04-25T12:17:58;5.57;;;1.42;;
25913;SDS011;13718;50.922;5.346;2023-04-25T12:20:26;5.65;;;1.30;;
25913;SDS011;13718;50.922;5.346;2023-04-25T12:22:52;6.15;;;1.50;;
25913;SDS011;13718;50.922;5.346;2023-04-25T12:28:21;12.77;;;2.30;;
25913;SDS011;13718;50.922;5.346;2023-04-25T12:31:06;6.80;;;2.10;;
25913;SDS011;13718;50.922;5.346;2023-04-25T12:33:34;8.15;;;2.13;;
25913;SDS011;13718;50.922;5.346;2023-04-25T12:36:01;8.32;;;1.98;;
25913;SDS011;13718;50.922;5.346;2023-04-25T12:38:36;5.25;;;1.75;;
25913;SDS011;13718;50.922;5.346;2023-04-25T12:41:03;9.30;;;2.03;;
25913;SDS011;13718;50.922;5.346;2023-04-25T12:43:29;5.93;;;1.73;;
25913;SDS011;13718;50.922;5.346;2023-04-25T12:45:55;7.43;;;2.20;;
25913;SDS011;13718;50.922;5.346;2023-04-25T12:48:22;8.75;;;1.80;;
25913;SDS011;13718;50.922;5.346;2023-04-25T12:50:48;8.38;;;2.13;;
25913;SDS011;13718;50.922;5.346;2023-04-25T12:53:19;7.38;;;2.22;;
25913;SDS011;13718;50.922;5.346;2023-04-25T12:55:45;7.20;;;1.80;;
25913;SDS011;13718;50.922;5.346;2023-04-25T12:58:12;6.82;;;1.60;;
25913;SDS011;13718;50.922;5.346;2023-04-25T13:00:38;5.20;;;1.30;;
25913;SDS011;13718;50.922;5.346;2023-04-25T13:03:03;7.70;;;1.60;;
25913;SDS011;13718;50.922;5.346;2023-04-25T13:05:29;6.95;;;1.30;;
25913;SDS011;13718;50.922;5.346;2023-04-25T13:07:55;8.60;;;1.83;;
25913;SDS011;13718;50.922;5.346;2023-04-25T13:10:21;7.97;;;1.27;;
25913;SDS011;13718;50.922;5.346;2023-04-25T13:12:47;6.53;;;1.33;;
25913;SDS011;13718;50.922;5.346;2023-04-25T13:15:13;5.85;;;1.48;;
25913;SDS011;13718;50.922;5.346;2023-04-25T13:17:40;6.55;;;1.48;;
25913;SDS011;13718;50.922;5.346;2023-04-25T13:20:07;5.07;;;1.75;;
25913;SDS011;13718;50.922;5.346;2023-04-25T13:22:37;7.65;;;1.60;;
25913;SDS011;13718;50.922;5.346;2023-04-25T13:25:04;9.63;;;2.00;;
25913;SDS011;13718;50.922;5.346;2023-04-25T13:27:31;4.20;;;1.10;;
25913;SDS011;13718;50.922;5.346;2023-04-25T13:29:59;7.55;;;1.92;;
25913;SDS011;13718;50.922;5.346;2023-04-25T13:32:26;8.15;;;1.52;;
25913;SDS011;13718;50.922;5.346;2023-04-25T13:34:52;5.25;;;1.63;;
25913;SDS011;13718;50.922;5.346;2023-04-25T13:37:18;9.23;;;2.05;;
25913;SDS011;13718;50.922;5.346;2023-04-25T13:39:44;6.40;;;1.92;;
25913;SDS011;13718;50.922;5.346;2023-04-25T13:42:09;10.30;;;2.00;;
25913;SDS011;13718;50.922;5.346;2023-04-25T13:44:36;7.47;;;2.13;;
25913;SDS011;13718;50.922;5.346;2023-04-25T13:47:01;14.27;;;2.40;;
25913;SDS011;13718;50.922;5.346;2023-04-25T13:49:27;11.05;;;2.17;;
25913;SDS011;13718;50.922;5.346;2023-04-25T13:51:53;7.45;;;2.10;;
25913;SDS011;13718;50.922;5.346;2023-04-25T13:54:18;10.55;;;1.92;;
25913;SDS011;13718;50.922;5.346;2023-04-25T13:56:44;8.50;;;2.00;;
25913;SDS011;13718;50.922;5.346;2023-04-25T13:59:10;9.13;;;2.10;;
25913;SDS011;13718;50.922;5.346;2023-04-25T14:01:36;4.95;;;1.95;;
25913;SDS011;13718;50.922;5.346;2023-04-25T14:04:02;12.55;;;2.35;;
25913;SDS011;13718;50.922;5.346;2023-04-25T14:06:31;5.35;;;1.80;;
25913;SDS011;13718;50.922;5.346;2023-04-25T14:08:57;8.25;;;1.80;;
25913;SDS011;13718;50.922;5.346;2023-04-25T14:11:22;7.40;;;1.70;;
25913;SDS011;13718;50.922;5.346;2023-04-25T14:13:48;7.15;;;1.80;;
25913;SDS011;13718;50.922;5.346;2023-04-25T14:16:15;6.43;;;1.45;;
25913;SDS011;13718;50.922;5.346;2023-04-25T14:18:41;7.38;;;1.80;;
25913;SDS011;13718;50.922;5.346;2023-04-25T14:21:06;4.47;;;1.42;;
25913;SDS011;13718;50.922;5.346;2023-04-25T14:23:32;5.72;;;1.40;;
25913;SDS011;13718;50.922;5.346;2023-04-25T14:25:58;6.03;;;1.42;;
25913;SDS011;13718;50.922;5.346;2023-04-25T14:28:24;5.47;;;1.38;;
25913;SDS011;13718;50.922;5.346;2023-04-25T14:30:49;6.07;;;1.80;;
25913;SDS011;13718;50.922;5.346;2023-04-25T14:33:15;5.78;;;1.48;;
25913;SDS011;13718;50.922;5.346;2023-04-25T14:35:40;4.95;;;1.45;;
25913;SDS011;13718;50.922;5.346;2023-04-25T14:38:06;5.68;;;1.40;;
25913;SDS011;13718;50.922;5.346;2023-04-25T14:40:32;5.40;;;1.50;;
25913;SDS011;13718;50.922;5.346;2023-04-25T14:42:58;8.63;;;1.60;;
25913;SDS011;13718;50.922;5.346;2023-04-25T14:45:24;7.35;;;1.70;;
25913;SDS011;13718;50.922;5.346;2023-04-25T14:47:49;7.28;;;1.35;;
25913;SDS011;13718;50.922;5.346;2023-04-25T14:50:15;4.82;;;1.63;;
25913;SDS011;13718;50.922;5.346;2023-04-25T14:52:42;5.68;;;1.42;;
25913;SDS011;13718;50.922;5.346;2023-04-25T14:55:09;7.10;;;1.35;;
25913;SDS011;13718;50.922;5.346;2023-04-25T14:57:34;5.63;;;1.42;;
25913;SDS011;13718;50.922;5.346;2023-04-25T15:00:00;9.00;;;1.50;;
25913;SDS011;13718;50.922;5.346;2023-04-25T15:02:27;5.30;;;1.15;;
25913;SDS011;13718;50.922;5.346;2023-04-25T15:04:53;8.60;;;1.50;;
25913;SDS011;13718;50.922;5.346;2023-04-25T15:07:20;6.38;;;1.40;;
25913;SDS011;13718;50.922;5.346;2023-04-25T15:09:47;6.43;;;1.60;;
25913;SDS011;13718;50.922;5.346;2023-04-25T15:12:13;6.22;;;1.20;;
25913;SDS011;13718;50.922;5.346;2023-04-25T15:14:38;4.50;;;1.20;;
25913;SDS011;13718;50.922;5.346;2023-04-25T15:17:04;5.78;;;1.30;;
25913;SDS011;13718;50.922;5.346;2023-04-25T15:19:31;4.95;;;1.17;;
25913;SDS011;13718;50.922;5.346;2023-04-25T15:21:56;6.82;;;1.55;;
25913;SDS011;13718;50.922;5.346;2023-04-25T15:24:25;7.40;;;1.45;;
25913;SDS011;13718;50.922;5.346;2023-04-25T15:26:51;7.10;;;1.63;;
25913;SDS011;13718;50.922;5.346;2023-04-25T15:29:17;8.85;;;1.30;;
25913;SDS011;13718;50.922;5.346;2023-04-25T15:31:44;6.68;;;1.33;;